Time;durP1;ratioP1;P1;durP2;ratioP2;P2;SDS_P1;SDS_P2;PMS_P1;PMS_P2;Temp;Humidity;BMP_temperature;BMP_pressure;BME280_temperature;BME280_humidity;BME280_pressure;Samples;Min_cycle;Max_cycle;Signal;HPM_P1;HPM_P2
2023/07/14 00:01:29;;;;;;;5.93;5.20;;;15.20;99.90;;;;;;5114808;27;20177;-81
2023/07/14 00:03:54;;;;;;;14.85;7.32;;;15.10;99.90;;;;;;5111933;27;20067;-80
2023/07/14 00:06:20;;;;;;;7.00;6.30;;;15.10;99.90;;;;;;5111208;27;20039;-80
2023/07/14 00:08:47;;;;;;;6.68;5.60;;;15.10;99.90;;;;;;5115464;27;20031;-80
2023/07/14 00:11:15;;;;;;;7.25;6.32;;;15.10;99.90;;;;;;5116674;27;20057;-81
2023/07/14 00:13:41;;;;;;;8.48;6.10;;;15.00;99.90;;;;;;5116973;27;20385;-81
2023/07/14 00:16:13;;;;;;;8.45;6.45;;;15.10;99.90;;;;;;5122227;27;20092;-80
2023/07/14 00:18:38;;;;;;;8.45;6.47;;;15.10;99.90;;;;;;5113264;27;20580;-80
2023/07/14 00:21:04;;;;;;;9.63;5.65;;;15.00;99.90;;;;;;5117063;27;20095;-80
2023/07/14 00:23:29;;;;;;;9.38;6.93;;;15.10;99.90;;;;;;5114584;27;20039;-79
2023/07/14 00:25:55;;;;;;;10.63;8.98;;;15.00;99.90;;;;;;5117049;27;20044;-81
2023/07/14 00:28:21;;;;;;;10.68;8.20;;;15.10;99.90;;;;;;5113582;27;20043;-80
2023/07/14 00:30:49;;;;;;;8.45;6.40;;;15.10;99.90;;;;;;5115879;27;20040;-81
2023/07/14 00:33:18;;;;;;;7.50;6.43;;;15.10;99.90;;;;;;5110624;27;20032;-78
2023/07/14 00:35:45;;;;;;;8.25;6.53;;;15.00;99.90;;;;;;5116642;27;20055;-78
2023/07/14 00:38:11;;;;;;;13.23;9.02;;;15.00;99.90;;;;;;5115909;27;20089;-80
2023/07/14 00:40:39;;;;;;;13.15;9.05;;;14.90;99.90;;;;;;5120407;27;20091;-81
2023/07/14 00:43:12;;;;;;;9.35;7.88;;;15.00;99.90;;;;;;5113367;27;20863;-81
2023/07/14 00:45:38;;;;;;;11.27;9.27;;;14.90;99.90;;;;;;5116177;27;20659;-81
2023/07/14 00:48:05;;;;;;;15.55;11.05;;;15.00;99.90;;;;;;5112679;27;20135;-81
2023/07/14 00:50:40;;;;;;;8.23;7.00;;;15.10;99.90;;;;;;5115430;27;20031;-79
2023/07/14 00:53:19;;;;;;;12.03;10.30;;;15.00;99.90;;;;;;5117348;27;20039;-81
2023/07/14 00:55:50;;;;;;;21.65;9.55;;;14.90;99.90;;;;;;5117078;27;20490;-81
2023/07/14 00:58:20;;;;;;;16.17;10.40;;;15.00;99.90;;;;;;5115295;27;20043;-81
2023/07/14 01:01:02;;;;;;;11.95;9.82;;;15.00;99.90;;;;;;5119202;27;20039;-78
2023/07/14 01:03:28;;;;;;;12.35;9.95;;;15.00;99.90;;;;;;5117874;27;20039;-80
2023/07/14 01:05:55;;;;;;;10.75;9.65;;;15.00;99.90;;;;;;5112541;27;20054;-80
2023/07/14 01:08:21;;;;;;;11.77;9.38;;;15.00;99.90;;;;;;5112152;27;20035;-81
2023/07/14 01:10:47;;;;;;;10.18;8.93;;;15.10;99.90;;;;;;5117405;27;20039;-81
2023/07/14 01:13:13;;;;;;;12.13;10.18;;;15.00;99.90;;;;;;5120327;27;20069;-81
2023/07/14 01:15:40;;;;;;;14.27;10.45;;;15.10;99.90;;;;;;5119424;27;20058;-78
2023/07/14 01:18:08;;;;;;;13.05;10.07;;;15.00;99.90;;;;;;5112034;27;20046;-81
2023/07/14 01:20:37;;;;;;;10.75;8.73;;;15.00;99.90;;;;;;5112742;27;20070;-80
2023/07/14 01:23:45;;;;;;;16.42;9.65;;;15.00;99.90;;;;;;5111938;27;20056;-81
2023/07/14 01:26:42;;;;;;;12.90;9.38;;;15.00;99.90;;;;;;5115480;27;20046;-80
2023/07/14 01:29:08;;;;;;;10.43;9.13;;;15.00;99.90;;;;;;5112903;27;20421;-81
2023/07/14 01:31:35;;;;;;;16.88;10.02;;;15.00;99.90;;;;;;5117983;27;20051;-80
2023/07/14 01:34:02;;;;;;;10.23;9.25;;;15.00;99.90;;;;;;5108745;27;20032;-79
2023/07/14 01:36:28;;;;;;;10.77;9.23;;;15.00;99.90;;;;;;5117808;27;20517;-81
2023/07/14 01:38:54;;;;;;;11.77;8.93;;;14.90;99.90;;;;;;5116187;27;20055;-80
2023/07/14 01:41:20;;;;;;;10.32;9.32;;;14.90;99.90;;;;;;5115559;27;20055;-80
2023/07/14 01:43:46;;;;;;;11.48;8.68;;;14.90;99.90;;;;;;5110973;27;20032;-81
2023/07/14 01:46:21;;;;;;;10.07;9.07;;;15.00;99.90;;;;;;5111513;27;20050;-81
2023/07/14 01:49:27;;;;;;;10.23;8.23;;;15.00;99.90;;;;;;5115761;27;20071;-79
2023/07/14 01:51:57;;;;;;;13.35;8.80;;;14.90;99.90;;;;;;5109507;27;20571;-78
2023/07/14 01:54:47;;;;;;;11.55;8.40;;;14.90;99.90;;;;;;5112863;27;20540;-81
2023/07/14 01:57:17;;;;;;;9.70;8.30;;;14.90;99.90;;;;;;5115430;27;20043;-81
2023/07/14 01:59:54;;;;;;;15.07;8.98;;;14.80;99.90;;;;;;5110379;27;20036;-81
2023/07/14 02:02:40;;;;;;;11.60;8.65;;;14.90;99.90;;;;;;5116354;27;20047;-78
2023/07/14 02:05:19;;;;;;;12.38;8.18;;;14.80;99.90;;;;;;5110801;27;20063;-79
2023/07/14 02:07:46;;;;;;;9.02;8.13;;;14.80;99.90;;;;;;5114932;27;20036;-81
2023/07/14 02:10:19;;;;;;;10.48;8.07;;;14.70;99.90;;;;;;5115857;27;20037;-80
2023/07/14 02:12:46;;;;;;;10.40;7.57;;;14.70;99.90;;;;;;5116398;27;20139;-81
2023/07/14 02:15:23;;;;;;;9.52;8.52;;;14.70;99.90;;;;;;5113642;27;20043;-78
2023/07/14 02:17:50;;;;;;;15.27;9.48;;;14.70;99.90;;;;;;5110137;27;20080;-79
2023/07/14 02:20:20;;;;;;;10.95;7.50;;;14.70;99.90;;;;;;5112047;27;20038;-79
2023/07/14 02:22:48;;;;;;;11.30;8.65;;;14.70;99.90;;;;;;5105733;27;20031;-80
2023/07/14 02:25:17;;;;;;;9.95;7.68;;;14.60;99.90;;;;;;5110598;27;20050;-80
2023/07/14 02:27:43;;;;;;;10.10;7.68;;;14.60;99.90;;;;;;5115373;27;20048;-80
2023/07/14 02:30:12;;;;;;;9.10;7.57;;;14.60;99.90;;;;;;5119817;27;20046;-80
2023/07/14 02:32:41;;;;;;;10.20;8.60;;;14.50;99.90;;;;;;5112582;27;20050;-81
2023/07/14 02:35:23;;;;;;;12.55;7.75;;;14.40;99.90;;;;;;5132353;27;20044;-79
2023/07/14 02:38:04;;;;;;;7.95;7.15;;;14.40;99.90;;;;;;5118153;27;20061;-78
2023/07/14 02:40:35;;;;;;;10.55;8.32;;;14.40;99.90;;;;;;5118885;27;20264;-81
2023/07/14 02:43:05;;;;;;;9.90;7.28;;;14.40;99.90;;;;;;5112739;27;20042;-79
2023/07/14 02:45:33;;;;;;;9.15;7.22;;;14.40;99.90;;;;;;5119173;27;20761;-80
2023/07/14 02:48:01;;;;;;;7.90;6.78;;;14.40;99.90;;;;;;5111756;27;20504;-81
2023/07/14 02:50:27;;;;;;;10.05;6.68;;;14.40;99.90;;;;;;5119899;27;20505;-81
2023/07/14 02:52:52;;;;;;;9.20;7.20;;;14.30;99.90;;;;;;5114500;27;20049;-79
2023/07/14 02:55:18;;;;;;;8.32;6.82;;;14.30;99.90;;;;;;5121050;27;20043;-76
2023/07/14 02:57:43;;;;;;;7.57;6.82;;;14.30;99.90;;;;;;5108355;27;20717;-79
2023/07/14 03:00:10;;;;;;;10.85;6.88;;;14.30;99.90;;;;;;5113707;27;20040;-80
2023/07/14 03:02:38;;;;;;;9.30;6.20;;;14.30;99.90;;;;;;5112910;27;20035;-77
2023/07/14 03:05:04;;;;;;;11.43;6.28;;;14.30;99.90;;;;;;5116036;27;20478;-80
2023/07/14 03:07:32;;;;;;;10.63;6.60;;;14.30;99.90;;;;;;5112384;27;20065;-78
2023/07/14 03:09:58;;;;;;;8.80;6.93;;;14.20;99.90;;;;;;5114891;27;20047;-81
2023/07/14 03:12:23;;;;;;;9.13;6.05;;;14.10;99.90;;;;;;5111945;27;20046;-81
2023/07/14 03:14:49;;;;;;;8.10;6.60;;;14.10;99.90;;;;;;5113710;27;20034;-79
2023/07/14 03:17:14;;;;;;;7.15;6.28;;;14.10;99.90;;;;;;5107937;27;20038;-81
2023/07/14 03:19:40;;;;;;;7.80;6.07;;;14.10;99.90;;;;;;5112434;27;20043;-81
2023/07/14 03:22:05;;;;;;;10.15;6.35;;;14.10;99.90;;;;;;5113121;28;20050;-81
2023/07/14 03:24:31;;;;;;;8.57;6.07;;;14.10;99.90;;;;;;5119353;27;20130;-79
2023/07/14 03:26:56;;;;;;;7.75;5.72;;;14.10;99.90;;;;;;5110784;28;20031;-81
2023/07/14 03:29:22;;;;;;;8.60;5.90;;;14.10;99.90;;;;;;5110028;27;20054;-81
2023/07/14 03:31:48;;;;;;;10.07;6.35;;;14.10;99.90;;;;;;5111979;28;20039;-81
2023/07/14 03:34:13;;;;;;;8.13;6.28;;;14.10;99.90;;;;;;5111058;27;20048;-78
2023/07/14 03:36:39;;;;;;;11.52;6.03;;;14.10;99.90;;;;;;5110531;28;20048;-78
2023/07/14 03:39:26;;;;;;;9.43;5.07;;;14.10;99.90;;;;;;5115160;28;20063;-81
2023/07/14 03:41:53;;;;;;;7.65;5.35;;;14.10;99.90;;;;;;5112668;28;20038;-80
2023/07/14 03:44:19;;;;;;;7.93;5.47;;;14.10;99.90;;;;;;5110990;28;20057;-80
2023/07/14 03:46:45;;;;;;;9.65;5.80;;;14.00;99.90;;;;;;5110613;28;20091;-81
2023/07/14 03:49:12;;;;;;;10.77;5.00;;;14.00;99.90;;;;;;5115578;28;20039;-80
2023/07/14 03:51:37;;;;;;;5.20;4.70;;;14.00;99.90;;;;;;5118408;27;20051;-81
2023/07/14 03:54:03;;;;;;;9.48;5.60;;;14.10;99.90;;;;;;5115109;27;20048;-81
2023/07/14 03:56:29;;;;;;;8.70;5.72;;;14.00;99.90;;;;;;5114206;28;20098;-81
2023/07/14 03:58:54;;;;;;;8.80;5.97;;;14.00;99.90;;;;;;5109756;28;20043;-79
2023/07/14 04:01:20;;;;;;;10.02;4.97;;;14.10;99.90;;;;;;5105077;28;20143;-81
2023/07/14 04:03:47;;;;;;;8.25;5.30;;;14.10;99.90;;;;;;5111338;28;20059;-80
2023/07/14 04:06:12;;;;;;;9.45;4.72;;;14.10;99.90;;;;;;5105296;28;20051;-80
2023/07/14 04:08:39;;;;;;;8.20;5.80;;;14.00;99.90;;;;;;5107728;28;20095;-81
2023/07/14 04:11:05;;;;;;;8.60;5.53;;;14.00;99.90;;;;;;5112636;28;20091;-79
2023/07/14 04:13:32;;;;;;;13.40;6.55;;;14.10;99.90;;;;;;5110495;28;20145;-81
2023/07/14 04:15:57;;;;;;;11.32;5.55;;;14.10;99.90;;;;;;5109507;28;20370;-81
2023/07/14 04:18:23;;;;;;;6.07;4.53;;;14.10;99.90;;;;;;5117088;28;20050;-78
2023/07/14 04:20:49;;;;;;;13.98;6.80;;;14.20;99.90;;;;;;5118605;28;20108;-79
2023/07/14 04:23:17;;;;;;;7.93;5.22;;;14.40;99.90;;;;;;5108905;28;20042;-81
2023/07/14 04:25:43;;;;;;;9.77;5.47;;;14.60;99.90;;;;;;5111808;28;20574;-79
2023/07/14 04:28:09;;;;;;;7.65;5.45;;;14.90;99.90;;;;;;5107313;28;20122;-80
2023/07/14 04:30:34;;;;;;;8.80;5.50;;;15.00;99.90;;;;;;5121179;27;20098;-79
2023/07/14 04:33:00;;;;;;;11.88;5.18;;;15.00;99.90;;;;;;5110878;27;20047;-81
2023/07/14 04:35:25;;;;;;;8.40;5.97;;;15.00;99.90;;;;;;5102438;27;20047;-79
2023/07/14 04:37:51;;;;;;;6.97;5.43;;;15.20;99.90;;;;;;5114332;27;20049;-80
2023/07/14 04:40:17;;;;;;;7.90;4.82;;;15.40;99.90;;;;;;5112554;27;20056;-80
2023/07/14 04:42:42;;;;;;;8.32;5.20;;;15.50;99.90;;;;;;5115190;27;20050;-80
2023/07/14 04:45:08;;;;;;;10.25;5.05;;;15.70;99.90;;;;;;5111611;27;20119;-76
2023/07/14 04:47:34;;;;;;;7.90;4.18;;;16.10;99.90;;;;;;5112932;27;20034;-79
2023/07/14 04:50:00;;;;;;;6.63;4.70;;;16.30;99.90;;;;;;5109212;27;20346;-82
2023/07/14 04:52:25;;;;;;;6.43;4.40;;;16.40;99.90;;;;;;5115788;27;20065;-80
2023/07/14 04:54:51;;;;;;;10.75;4.20;;;16.50;99.90;;;;;;5108077;27;20104;-80
2023/07/14 04:57:18;;;;;;;9.63;4.75;;;16.40;99.90;;;;;;5110785;27;20032;-80
2023/07/14 04:59:43;;;;;;;10.85;4.60;;;16.40;99.90;;;;;;5111712;27;20106;-81
2023/07/14 05:02:09;;;;;;;8.93;4.95;;;16.40;99.90;;;;;;5110866;27;20115;-80
2023/07/14 05:04:40;;;;;;;11.77;4.40;;;16.20;99.90;;;;;;5113444;27;20035;-79
2023/07/14 05:07:06;;;;;;;12.18;4.70;;;16.10;99.90;;;;;;5120503;27;20032;-80
2023/07/14 05:09:34;;;;;;;7.93;5.13;;;16.10;99.90;;;;;;5123977;27;20060;-80
2023/07/14 05:12:00;;;;;;;10.13;4.32;;;16.00;99.90;;;;;;5117294;27;20041;-79
2023/07/14 05:14:29;;;;;;;9.82;5.40;;;16.10;99.90;;;;;;5120777;27;20045;-80
2023/07/14 05:16:54;;;;;;;10.93;5.13;;;16.00;99.90;;;;;;5113279;27;20057;-80
2023/07/14 05:19:20;;;;;;;10.70;5.05;;;16.10;99.90;;;;;;5120169;27;20039;-80
2023/07/14 05:21:45;;;;;;;7.45;5.75;;;16.10;99.90;;;;;;5120442;27;20482;-81
2023/07/14 05:24:11;;;;;;;10.70;6.13;;;16.10;99.90;;;;;;5115264;27;20136;-79
2023/07/14 05:26:37;;;;;;;11.77;6.30;;;16.20;99.90;;;;;;5111177;27;20087;-80
2023/07/14 05:29:05;;;;;;;7.38;5.80;;;16.20;99.90;;;;;;5116563;27;20043;-79
2023/07/14 05:31:32;;;;;;;7.70;5.75;;;16.30;99.90;;;;;;5111506;27;20055;-81
2023/07/14 05:33:58;;;;;;;13.05;6.43;;;16.50;99.90;;;;;;5110494;27;20688;-80
2023/07/14 05:36:23;;;;;;;9.00;5.68;;;16.60;99.90;;;;;;5114954;27;20079;-77
2023/07/14 05:38:49;;;;;;;6.90;5.30;;;16.60;99.90;;;;;;5103877;27;20032;-81
2023/07/14 05:41:16;;;;;;;10.02;5.15;;;16.50;99.90;;;;;;5118550;27;20039;-80
2023/07/14 05:43:41;;;;;;;8.73;5.63;;;16.50;99.90;;;;;;5118474;27;20056;-81
2023/07/14 05:46:07;;;;;;;8.35;5.28;;;16.50;99.90;;;;;;5114254;27;20036;-80
2023/07/14 05:48:33;;;;;;;9.10;5.13;;;16.50;99.90;;;;;;5121686;27;20090;-80
2023/07/14 05:50:58;;;;;;;8.85;4.97;;;16.70;99.90;;;;;;5117069;27;20044;-79
2023/07/14 05:53:24;;;;;;;10.95;5.38;;;17.00;99.90;;;;;;5114468;27;20122;-80
2023/07/14 05:55:49;;;;;;;7.85;5.18;;;17.50;99.90;;;;;;5116657;27;20078;-81
2023/07/14 05:58:15;;;;;;;6.15;4.90;;;18.10;99.90;;;;;;5114642;27;20047;-81
2023/07/14 06:00:42;;;;;;;9.80;4.90;;;18.40;99.90;;;;;;5113839;27;20032;-81
2023/07/14 06:03:18;;;;;;;12.70;5.15;;;18.90;99.90;;;;;;5113051;27;20044;-79
2023/07/14 06:05:43;;;;;;;7.35;5.00;;;19.20;99.90;;;;;;5110903;27;20039;-81
2023/07/14 06:08:09;;;;;;;11.80;5.55;;;19.50;99.90;;;;;;5118824;27;20134;-81
2023/07/14 06:10:35;;;;;;;8.95;5.00;;;19.80;99.90;;;;;;5114525;27;20109;-78
2023/07/14 06:13:01;;;;;;;8.80;5.60;;;20.00;99.90;;;;;;5114851;27;20042;-81
2023/07/14 06:15:28;;;;;;;12.50;5.43;;;20.30;99.90;;;;;;5121259;27;20039;-80
2023/07/14 06:17:53;;;;;;;10.07;4.68;;;20.30;99.90;;;;;;5117363;27;20053;-81
2023/07/14 06:20:20;;;;;;;9.95;5.40;;;20.60;99.90;;;;;;5117595;27;20039;-80
2023/07/14 06:22:45;;;;;;;7.53;5.05;;;20.90;99.90;;;;;;5119603;27;20036;-80
2023/07/14 06:25:11;;;;;;;5.22;4.72;;;21.00;99.90;;;;;;5112979;27;20042;-81
2023/07/14 06:27:36;;;;;;;7.85;4.72;;;21.10;99.90;;;;;;5117863;27;20039;-81
2023/07/14 06:30:04;;;;;;;8.77;5.07;;;21.20;99.90;;;;;;5115001;27;20043;-77
2023/07/14 06:32:29;;;;;;;11.50;5.05;;;21.40;99.90;;;;;;5111396;27;20415;-79
2023/07/14 06:34:56;;;;;;;6.97;4.85;;;21.50;99.90;;;;;;5111190;27;20042;-81
2023/07/14 06:37:24;;;;;;;12.95;5.70;;;21.60;99.90;;;;;;5114714;27;20063;-80
2023/07/14 06:39:50;;;;;;;9.90;6.00;;;21.70;99.90;;;;;;5114483;27;20039;-81
2023/07/14 06:42:16;;;;;;;9.38;5.53;;;21.60;99.90;;;;;;5118708;27;20031;-81
2023/07/14 06:44:42;;;;;;;7.75;5.63;;;21.80;99.90;;;;;;5113015;27;20509;-81
2023/07/14 06:47:08;;;;;;;9.98;5.65;;;21.80;99.90;;;;;;5120069;27;20040;-79
2023/07/14 06:49:34;;;;;;;8.10;5.72;;;22.00;99.90;;;;;;5112596;27;20039;-81
2023/07/14 06:52:00;;;;;;;6.05;5.28;;;22.00;99.90;;;;;;5118288;27;20085;-81
2023/07/14 06:54:25;;;;;;;7.50;5.65;;;22.10;99.90;;;;;;5112667;27;20058;-81
2023/07/14 06:56:51;;;;;;;9.80;5.80;;;22.10;99.90;;;;;;5113892;27;20092;-81
2023/07/14 06:59:17;;;;;;;7.30;5.75;;;22.20;99.90;;;;;;5114359;27;20050;-81
2023/07/14 07:01:42;;;;;;;7.22;4.63;;;22.30;99.90;;;;;;5115584;27;20044;-79
2023/07/14 07:04:11;;;;;;;10.75;5.50;;;22.50;99.90;;;;;;5112185;27;20044;-81
2023/07/14 07:06:36;;;;;;;7.47;5.38;;;22.60;99.90;;;;;;5115741;27;20043;-80
2023/07/14 07:09:02;;;;;;;5.63;4.72;;;22.70;99.90;;;;;;5117818;27;20119;-81
2023/07/14 07:11:27;;;;;;;7.30;4.60;;;22.80;99.90;;;;;;5114207;27;20086;-80
2023/07/14 07:13:53;;;;;;;8.98;4.78;;;22.90;99.90;;;;;;5114073;27;20040;-80
2023/07/14 07:16:18;;;;;;;8.57;4.22;;;22.80;99.90;;;;;;5113824;27;20054;-81
2023/07/14 07:18:44;;;;;;;8.00;4.85;;;22.70;99.90;;;;;;5114761;27;20055;-81
2023/07/14 07:21:12;;;;;;;7.50;4.22;;;22.90;99.90;;;;;;5117217;27;20064;-81
2023/07/14 07:23:38;;;;;;;6.55;4.20;;;22.90;99.90;;;;;;5112741;27;20043;-81
2023/07/14 07:26:04;;;;;;;6.10;3.80;;;23.10;99.90;;;;;;5111517;27;20070;-79
2023/07/14 07:28:29;;;;;;;7.53;3.90;;;23.20;99.90;;;;;;5118122;27;20444;-80
2023/07/14 07:30:55;;;;;;;6.13;3.65;;;23.30;99.90;;;;;;5114628;28;20298;-80
2023/07/14 07:33:20;;;;;;;4.90;3.80;;;23.30;99.90;;;;;;5107735;28;20056;-81
2023/07/14 07:35:46;;;;;;;6.18;3.40;;;23.40;99.90;;;;;;5115871;28;20122;-80
2023/07/14 07:38:12;;;;;;;6.72;3.97;;;23.40;99.90;;;;;;5114126;28;20771;-80
2023/07/14 07:40:39;;;;;;;6.20;4.03;;;23.40;99.90;;;;;;5112616;28;20398;-79
2023/07/14 07:43:05;;;;;;;7.80;4.07;;;23.40;99.90;;;;;;5111294;28;20086;-79
2023/07/14 07:45:31;;;;;;;8.32;4.07;;;23.30;99.90;;;;;;5116453;28;20142;-81
2023/07/14 07:47:57;;;;;;;5.93;3.65;;;23.50;99.90;;;;;;5117781;27;20121;-79
2023/07/14 07:50:23;;;;;;;7.85;4.03;;;23.70;99.90;;;;;;5113710;28;20032;-80
2023/07/14 07:52:48;;;;;;;6.20;2.83;;;23.90;99.90;;;;;;5099595;28;20037;-78
2023/07/14 07:55:14;;;;;;;6.15;2.80;;;24.30;99.90;;;;;;5114721;27;20036;-81
2023/07/14 07:57:40;;;;;;;5.28;2.92;;;23.90;99.90;;;;;;5108230;28;20068;-78
2023/07/14 08:00:08;;;;;;;5.22;2.60;;;23.70;99.90;;;;;;5109833;28;20043;-80
2023/07/14 08:02:35;;;;;;;5.40;3.13;;;23.60;99.90;;;;;;5110287;28;20040;-81
2023/07/14 08:05:01;;;;;;;8.82;3.38;;;23.80;99.90;;;;;;5106822;27;20119;-79
2023/07/14 08:07:27;;;;;;;4.85;2.97;;;23.70;99.90;;;;;;5114129;27;20044;-80
2023/07/14 08:09:53;;;;;;;4.03;2.50;;;23.60;99.90;;;;;;5114242;27;20053;-81
2023/07/14 08:12:18;;;;;;;5.00;1.83;;;23.40;99.90;;;;;;5114009;27;20035;-81
2023/07/14 08:14:50;;;;;;;3.97;1.73;;;23.40;99.90;;;;;;5115185;27;20036;-81
2023/07/14 08:17:16;;;;;;;6.43;1.63;;;23.50;99.90;;;;;;5110140;27;20076;-80
2023/07/14 08:19:42;;;;;;;4.85;2.22;;;23.40;99.90;;;;;;5111113;27;20043;-79
2023/07/14 08:22:07;;;;;;;4.85;1.80;;;23.40;99.90;;;;;;5110056;27;20035;-79
2023/07/14 08:24:33;;;;;;;3.03;1.42;;;23.50;99.90;;;;;;5108411;27;20059;-77
2023/07/14 08:26:58;;;;;;;4.20;1.90;;;23.90;99.90;;;;;;5111761;27;20053;-80
2023/07/14 08:29:24;;;;;;;4.55;1.90;;;24.10;99.90;;;;;;5114882;27;20091;-79
2023/07/14 08:31:49;;;;;;;4.30;1.85;;;24.10;99.90;;;;;;5118001;27;20156;-80
2023/07/14 08:34:15;;;;;;;1.70;1.25;;;24.10;99.90;;;;;;5110955;27;20050;-81
2023/07/14 08:36:40;;;;;;;4.40;2.03;;;24.10;99.90;;;;;;5111232;27;20035;-78
2023/07/14 08:39:06;;;;;;;3.22;1.58;;;24.30;99.90;;;;;;5112938;27;20720;-78
2023/07/14 08:41:40;;;;;;;3.40;1.90;;;24.40;99.90;;;;;;5113658;27;20059;-80
2023/07/14 08:44:51;;;;;;;4.00;1.60;;;24.40;99.90;;;;;;5117661;27;20062;-81
2023/07/14 08:47:23;;;;;;;5.55;2.28;;;24.50;99.90;;;;;;5109673;27;20544;-82
2023/07/14 08:49:56;;;;;;;4.28;2.55;;;24.50;99.90;;;;;;5113602;27;20042;-80
2023/07/14 08:52:23;;;;;;;2.92;1.30;;;24.50;99.90;;;;;;5110794;27;20710;-80
2023/07/14 08:55:16;;;;;;;3.72;1.67;;;24.60;99.90;;;;;;5110372;27;20128;-79
2023/07/14 08:57:50;;;;;;;5.35;1.33;;;24.50;99.90;;;;;;5110402;27;20047;-79
2023/07/14 09:00:41;;;;;;;3.28;1.85;;;24.20;99.70;;;;;;5112933;27;20053;-79
2023/07/14 09:03:35;;;;;;;3.85;1.30;;;24.00;99.30;;;;;;5110535;27;20822;-79
2023/07/14 09:06:10;;;;;;;4.10;1.52;;;23.80;99.10;;;;;;5122747;27;20051;-78
2023/07/14 09:08:36;;;;;;;5.47;1.90;;;23.80;99.90;;;;;;5116587;27;20427;-79
2023/07/14 09:11:34;;;;;;;3.58;1.83;;;23.90;99.90;;;;;;5116754;27;20043;-79
2023/07/14 09:14:11;;;;;;;3.92;1.63;;;24.10;99.20;;;;;;5103959;27;20057;-78
2023/07/14 09:16:44;;;;;;;3.13;1.65;;;24.10;98.60;;;;;;5115607;27;20047;-79
2023/07/14 09:19:29;;;;;;;5.43;1.70;;;23.80;99.00;;;;;;5115337;27;20074;-79
2023/07/14 09:22:08;;;;;;;6.93;1.85;;;23.80;99.90;;;;;;5116838;27;20347;-80
2023/07/14 09:24:44;;;;;;;5.32;1.80;;;23.70;99.90;;;;;;5113496;27;20506;-79
2023/07/14 09:27:17;;;;;;;3.67;1.83;;;23.80;99.90;;;;;;5115259;27;20035;-79
2023/07/14 09:29:44;;;;;;;5.68;1.45;;;23.60;99.90;;;;;;5111970;27;21533;-79
2023/07/14 09:32:37;;;;;;;6.03;1.73;;;23.70;99.90;;;;;;5115397;27;20545;-79
2023/07/14 09:35:17;;;;;;;4.05;1.80;;;23.90;99.60;;;;;;5116793;27;20046;-79
2023/07/14 09:38:05;;;;;;;2.70;1.90;;;23.90;98.30;;;;;;5120970;27;20043;-79
2023/07/14 09:40:39;;;;;;;3.00;2.17;;;24.00;99.40;;;;;;5119207;27;20067;-80
2023/07/14 09:43:05;;;;;;;4.47;2.40;;;24.10;99.20;;;;;;5113031;27;20042;-79
2023/07/14 09:45:34;;;;;;;5.45;2.25;;;24.20;99.80;;;;;;5119763;27;20115;-80
2023/07/14 09:48:06;;;;;;;3.13;2.17;;;24.20;98.90;;;;;;5115501;27;20059;-79
2023/07/14 09:50:36;;;;;;;6.45;2.55;;;24.30;99.30;;;;;;5122008;27;20043;-80
2023/07/14 09:53:07;;;;;;;6.85;2.80;;;24.40;99.60;;;;;;5117670;27;20043;-80
2023/07/14 09:55:49;;;;;;;5.32;1.80;;;24.40;99.60;;;;;;5117678;27;20039;-79
2023/07/14 09:58:16;;;;;;;4.40;2.00;;;24.50;99.50;;;;;;5115204;27;20040;-78
2023/07/14 10:00:42;;;;;;;4.72;2.80;;;24.40;99.30;;;;;;5108039;27;20431;-79
2023/07/14 10:03:11;;;;;;;5.82;2.42;;;24.30;99.30;;;;;;5110180;27;20039;-80
2023/07/14 10:05:53;;;;;;;4.43;2.72;;;24.20;99.30;;;;;;5115327;27;20036;-79
2023/07/14 10:08:24;;;;;;;3.38;2.30;;;24.00;99.60;;;;;;5115765;27;20047;-80
2023/07/14 10:10:50;;;;;;;4.65;2.80;;;24.00;99.30;;;;;;5120348;27;20100;-80
2023/07/14 10:13:19;;;;;;;2.50;2.22;;;23.70;99.60;;;;;;5113898;27;20044;-79
2023/07/14 10:16:07;;;;;;;5.50;2.70;;;23.70;99.90;;;;;;5111135;27;20032;-81
2023/07/14 10:18:55;;;;;;;4.18;2.22;;;23.80;99.40;;;;;;5115397;27;20039;-81
2023/07/14 10:21:32;;;;;;;7.55;3.00;;;23.50;99.50;;;;;;5123215;27;20055;-81
2023/07/14 10:23:57;;;;;;;6.60;2.20;;;23.40;99.80;;;;;;5112774;27;20118;-79
2023/07/14 10:26:26;;;;;;;6.88;3.05;;;23.30;99.80;;;;;;5112902;27;20094;-78
2023/07/14 10:28:53;;;;;;;3.22;2.72;;;23.40;99.90;;;;;;5109129;27;20135;-80
2023/07/14 10:31:42;;;;;;;6.53;3.30;;;23.60;99.90;;;;;;5117869;27;20397;-79
2023/07/14 10:34:17;;;;;;;3.88;2.28;;;23.70;99.80;;;;;;5113622;27;20043;-79
2023/07/14 10:36:44;;;;;;;9.27;2.03;;;23.80;99.90;;;;;;5111271;27;20069;-80
2023/07/14 10:39:18;;;;;;;4.22;2.10;;;24.00;99.70;;;;;;5110853;27;20038;-81
2023/07/14 10:41:47;;;;;;;4.43;2.37;;;24.10;99.90;;;;;;5110200;27;20024;-80
2023/07/14 10:44:37;;;;;;;4.60;2.45;;;24.10;99.30;;;;;;5107354;27;20293;-80
2023/07/14 10:47:13;;;;;;;2.65;1.83;;;24.00;98.60;;;;;;5118432;27;20032;-80
2023/07/14 10:49:57;;;;;;;4.85;2.40;;;23.90;98.70;;;;;;5115700;27;20040;-79
2023/07/14 10:52:43;;;;;;;4.07;2.17;;;23.80;99.30;;;;;;5120473;27;20068;-77
2023/07/14 10:55:21;;;;;;;5.70;2.33;;;23.70;99.90;;;;;;5114595;27;20063;-79
2023/07/14 10:57:49;;;;;;;5.57;2.22;;;24.00;99.90;;;;;;5107809;27;20123;-78
2023/07/14 11:00:23;;;;;;;4.40;2.38;;;24.20;99.90;;;;;;5115839;27;20501;-80
2023/07/14 11:03:08;;;;;;;3.75;2.42;;;24.30;99.70;;;;;;5117542;27;20036;-80
2023/07/14 11:05:35;;;;;;;3.85;2.55;;;24.10;99.20;;;;;;5108460;27;20045;-81
2023/07/14 11:08:00;;;;;;;3.55;2.40;;;23.90;99.90;;;;;;5108347;27;20040;-80
2023/07/14 11:10:42;;;;;;;5.40;2.40;;;23.60;99.90;;;;;;5113545;27;20043;-80
2023/07/14 11:13:50;;;;;;;4.57;2.50;;;23.30;99.80;;;;;;5108872;27;20054;-80
2023/07/14 11:16:30;;;;;;;4.25;2.95;;;23.10;99.90;;;;;;5115233;27;20126;-81
2023/07/14 11:19:06;;;;;;;3.10;2.28;;;23.20;99.90;;;;;;5110274;27;20402;-80
2023/07/14 11:21:39;;;;;;;3.53;2.28;;;23.30;99.90;;;;;;5113508;27;20065;-80
2023/07/14 11:24:20;;;;;;;3.95;2.33;;;23.40;99.90;;;;;;5110837;27;20044;-80
2023/07/14 11:27:12;;;;;;;3.33;2.38;;;23.80;99.70;;;;;;5109190;27;20071;-80
2023/07/14 11:29:56;;;;;;;4.10;2.45;;;23.90;99.90;;;;;;5112081;27;20520;-80
2023/07/14 11:32:27;;;;;;;4.68;2.10;;;23.90;99.30;;;;;;5114952;27;20044;-80
2023/07/14 11:35:21;;;;;;;3.17;2.00;;;23.70;99.90;;;;;;5114857;27;20069;-79
2023/07/14 11:38:15;;;;;;;5.03;2.40;;;23.80;99.90;;;;;;5101442;28;20055;-78
2023/07/14 11:40:43;;;;;;;3.15;2.13;;;23.80;99.90;;;;;;5113175;28;20046;-81
2023/07/14 11:43:18;;;;;;;5.20;3.05;;;24.10;99.90;;;;;;5110998;28;20874;-80
2023/07/14 11:45:47;;;;;;;4.03;2.40;;;24.40;99.90;;;;;;5116797;28;20043;-80
2023/07/14 11:48:34;;;;;;;5.38;2.08;;;24.50;99.40;;;;;;5112045;28;20035;-78
2023/07/14 11:51:14;;;;;;;5.28;2.85;;;24.50;99.40;;;;;;5118444;28;20042;-81
2023/07/14 11:53:42;;;;;;;3.08;2.20;;;24.30;98.80;;;;;;5113752;28;20031;-80
2023/07/14 11:56:18;;;;;;;6.53;2.72;;;24.30;99.80;;;;;;5115717;27;20093;-81
2023/07/14 11:58:44;;;;;;;4.85;2.83;;;24.10;99.70;;;;;;5117911;28;20454;-80
2023/07/14 12:01:24;;;;;;;4.70;2.67;;;24.00;99.90;;;;;;5114301;28;20043;-81
2023/07/14 12:03:54;;;;;;;5.40;3.30;;;23.80;99.90;;;;;;5112333;28;20709;-80
2023/07/14 12:06:20;;;;;;;7.03;2.40;;;23.40;99.50;;;;;;5111858;28;20050;-80
2023/07/14 12:09:04;;;;;;;3.80;2.42;;;23.30;99.90;;;;;;5112458;27;20039;-80
2023/07/14 12:11:56;;;;;;;8.27;2.50;;;23.20;99.90;;;;;;5113724;28;20039;-80
2023/07/14 12:14:45;;;;;;;4.30;2.65;;;23.10;99.90;;;;;;5114161;28;20506;-80
2023/07/14 12:17:42;;;;;;;6.30;3.38;;;23.00;99.90;;;;;;5107090;28;20178;-80
2023/07/14 12:20:13;;;;;;;4.03;2.75;;;22.90;99.90;;;;;;5103730;28;20043;-80
2023/07/14 12:22:42;;;;;;;7.57;2.85;;;22.90;99.90;;;;;;5108901;28;20453;-82
2023/07/14 12:25:15;;;;;;;5.38;3.67;;;22.90;99.90;;;;;;5112078;28;20039;-79
2023/07/14 12:27:52;;;;;;;6.68;3.42;;;23.10;99.90;;;;;;5109832;28;20489;-80
2023/07/14 12:30:21;;;;;;;6.13;3.17;;;23.30;99.90;;;;;;5111283;28;20571;-80
2023/07/14 12:32:47;;;;;;;7.85;3.25;;;23.70;99.90;;;;;;5105104;28;20032;-78
2023/07/14 12:35:15;;;;;;;4.53;2.90;;;23.90;99.90;;;;;;5110631;28;20621;-80
2023/07/14 12:37:41;;;;;;;5.57;3.13;;;24.10;99.90;;;;;;5109198;28;20040;-80
2023/07/14 12:40:24;;;;;;;11.45;3.42;;;24.10;99.90;;;;;;5112878;28;20038;-80
2023/07/14 12:42:50;;;;;;;5.00;2.88;;;24.10;99.90;;;;;;5112431;28;20593;-80
2023/07/14 12:45:19;;;;;;;6.32;3.40;;;24.00;99.90;;;;;;5108194;28;20036;-80
2023/07/14 12:47:47;;;;;;;4.55;3.03;;;24.00;99.90;;;;;;5110766;28;20040;-79
2023/07/14 12:50:15;;;;;;;4.38;2.85;;;23.90;99.90;;;;;;5111974;28;20102;-80
2023/07/14 12:52:43;;;;;;;6.32;3.38;;;23.80;99.90;;;;;;5104529;27;20054;-80
2023/07/14 12:55:12;;;;;;;7.32;3.80;;;23.80;99.90;;;;;;5118920;27;20068;-80
2023/07/14 12:57:39;;;;;;;6.63;3.38;;;23.70;99.90;;;;;;5121973;27;20039;-80
2023/07/14 13:00:28;;;;;;;8.65;3.00;;;23.80;99.90;;;;;;5122908;27;20456;-79